ADDS METAR Data INFO
IDs: Format: Raw Decoded Include TAF

Data at: 1112 UTC 13 Dec 2017

KBKD 131055Z AUTO 19005KT 10SM CLR 05/M06 A3007 RMK AO2 T00461065
KBKD 131035Z AUTO 19006KT 10SM CLR 05/M06 A3007 RMK AO2 T00481060
KBKD 131015Z AUTO 18006KT 10SM CLR 05/M06 A3008 RMK AO2 T00461064
KBKD 130955Z AUTO 18003KT 10SM CLR 04/M07 A3009 RMK AO2 T00441066
KBKD 130935Z AUTO 20004KT 10SM CLR 05/M07 A3010 RMK AO2 T00461066
KBKD 130915Z AUTO 21005KT 10SM CLR 06/M07 A3010 RMK AO2 T00551066
KBKD 130855Z AUTO 22007KT 10SM CLR 06/M06 A3011 RMK AO2 T00601063
KBKD 130835Z AUTO 22006KT 10SM CLR 05/M06 A3012 RMK AO2 T00511057
KBKD 130815Z AUTO 21004KT 10SM CLR 05/M06 A3012 RMK AO2 T00451061
KBKD 130755Z AUTO 21004KT 10SM CLR 04/M06 A3013 RMK AO2 T00441057
KBKD 130735Z AUTO 21003KT 10SM CLR 04/M05 A3013 RMK AO2 T00391055
KBKD 130715Z AUTO 00000KT 10SM CLR 03/M05 A3014 RMK AO2 T00291052
KBKD 130655Z AUTO 21004KT 10SM CLR 04/M05 A3015 RMK AO2 T00351053
KBKD 130635Z AUTO 21003KT 10SM CLR 05/M05 A3017 RMK AO2 T00451052
KBKD 130615Z AUTO 20004KT 10SM CLR 04/M05 A3017 RMK AO2 T00401051
KBKD 130555Z AUTO 20004KT 10SM CLR 03/M05 A3018 RMK AO2 T00321050 10096 20022
KBKD 130535Z AUTO 20005KT 10SM CLR 02/M05 A3019 RMK AO2 T00221046
KBKD 130515Z AUTO 00000KT 10SM CLR 03/M05 A3020 RMK AO2 T00281046
KBKD 130455Z AUTO 00000KT 10SM CLR 04/M05 A3021 RMK AO2 T00361046
KBKD 130435Z AUTO 19004KT 10SM CLR 04/M04 A3021 RMK AO2 T00381045
KBKD 130415Z AUTO 20004KT 10SM CLR 04/M04 A3022 RMK AO2 T00371042
KBKD 130355Z AUTO 19005KT 10SM CLR 04/M04 A3023 RMK AO2 T00401040
KBKD 130335Z AUTO 18005KT 10SM CLR 05/M03 A3023 RMK AO2 T00451033
KBKD 130315Z AUTO 19006KT 10SM CLR 05/M02 A3024 RMK AO2 T00461024
KBKD 130255Z AUTO 19006KT 10SM CLR 05/M02 A3025 RMK AO2 T00471024
KBKD 130235Z AUTO 19006KT 10SM CLR 04/M03 A3025 RMK AO2 T00421034
KBKD 130215Z AUTO 19004KT 10SM CLR 05/M04 A3026 RMK AO2 T00461042
KBKD 130155Z AUTO 22004KT 10SM CLR 06/M04 A3027 RMK AO2 T00581042
KBKD 130135Z AUTO 22003KT 10SM CLR 07/M04 A3027 RMK AO2 T00651041
KBKD 130115Z AUTO 23003KT 10SM CLR 07/M04 A3028 RMK AO2 T00721040
KBKD 130055Z AUTO 26003KT 10SM CLR 08/M04 A3028 RMK AO2 T00761040
KBKD 130035Z AUTO 27003KT 10SM CLR 09/M04 A3028 RMK AO2 T00871041
KBKD 130015Z AUTO 27003KT 10SM CLR 10/M04 A3028 RMK AO2 T00951040
KBKD 122355Z AUTO 28004KT 10SM CLR 10/M04 A3028 RMK AO2 T00981041 10140 20098
KBKD 122335Z AUTO 30004KT 10SM CLR 11/M04 A3028 RMK AO2 T01061042
KBKD 122315Z AUTO 30004KT 10SM CLR 12/M04 A3029 RMK AO2 T01151040
KBKD 122255Z AUTO 30006KT 10SM CLR 13/M04 A3030 RMK AO2 T01251041
KBKD 122235Z AUTO 28008KT 10SM CLR 13/M04 A3030 RMK AO2 T01301040
KBKD 122215Z AUTO 32007KT 10SM CLR 14/M04 A3031 RMK AO2 T01351040
KBKD 122155Z AUTO 30005KT 10SM CLR 14/M04 A3032 RMK AO2 T01361042
KBKD 122135Z AUTO 30008KT 10SM CLR 14/M04 A3033 RMK AO2 T01371037
KBKD 122115Z AUTO 30005G09KT 10SM CLR 14/M04 A3034 RMK AO2 T01361036
KBKD 122055Z AUTO 30009G14KT 10SM CLR 14/M03 A3035 RMK AO2 T01351035
KBKD 122035Z AUTO 33006KT 10SM CLR 14/M03 A3035 RMK AO2 T01371031
KBKD 122015Z AUTO 32005KT 10SM CLR 13/M03 A3036 RMK AO2 T01291031
KBKD 121955Z AUTO 34005G14KT 10SM CLR 13/M03 A3037 RMK AO2 T01301029
KBKD 121935Z AUTO 29008KT 10SM CLR 13/M03 A3039 RMK AO2 T01261028
KBKD 121915Z AUTO 32009KT 10SM CLR 13/M03 A3040 RMK AO2 T01261028
KBKD 121855Z AUTO 33010G14KT 10SM CLR 12/M03 A3041 RMK AO2 T01231026
KBKD 121835Z AUTO 01003KT 10SM CLR 12/M03 A3043 RMK AO2 T01181028
KBKD 121815Z AUTO 33008KT 10SM CLR 11/M02 A3044 RMK AO2 T01111025
KBKD 121755Z AUTO 34007KT 320V020 10SM CLR 11/M03 A3046 RMK AO2 T01121026 10112 20037
KBKD 121735Z AUTO 33007G14KT 300V360 10SM CLR 11/M02 A3047 RMK AO2 T01071025
KBKD 121715Z AUTO 34008KT 10SM CLR 10/M02 A3048 RMK AO2 T01031025
KBKD 121655Z AUTO 36010KT 10SM CLR 10/M02 A3048 RMK AO2 T00971025
KBKD 121635Z AUTO 01007G14KT 10SM CLR 10/M02 A3049 RMK AO2 T00951025
KBKD 121615Z AUTO 01009G14KT 10SM CLR 09/M03 A3049 RMK AO2 T00891026
KBKD 121555Z AUTO 01011KT 10SM CLR 08/M03 A3049 RMK AO2 T00831026
KBKD 121535Z AUTO 01008KT 10SM CLR 08/M02 A3048 RMK AO2 T00791025
KBKD 121515Z AUTO 36009KT 10SM CLR 07/M03 A3047 RMK AO2 T00691030
KBKD 121455Z AUTO 01007KT 10SM CLR 06/M03 A3047 RMK AO2 T00611032
KBKD 121435Z AUTO 36007KT 10SM CLR 05/M03 A3046 RMK AO2 T00541035
KBKD 121415Z AUTO 35005KT 10SM CLR 04/M04 A3045 RMK AO2 T00441041
KBKD 121355Z AUTO 35006KT 10SM CLR 04/M04 A3044 RMK AO2 T00411041
KBKD 121335Z AUTO 33003KT 10SM CLR 04/M04 A3045 RMK AO2 T00411040
KBKD 121315Z AUTO 35004KT 10SM CLR 05/M03 A3044 RMK AO2 T00451035
KBKD 121255Z AUTO 01007KT 10SM CLR 06/M03 A3043 RMK AO2 T00551033
KBKD 121235Z AUTO 01009KT 10SM CLR 06/M03 A3042 RMK AO2 T00581035
KBKD 121215Z AUTO 01011G17KT 10SM CLR A3041 RMK AO2
KBKD 121155Z AUTO 01010KT 10SM CLR 05/M05 A3040 RMK AO2 T00531048 10110 20053
KBKD 121135Z AUTO 01009KT 10SM CLR 06/M05 A3040 RMK AO2 T00561050
KBKD 121115Z AUTO 35004KT 10SM CLR 06/M05 A3040 RMK AO2 T00561052
KBKD 121055Z AUTO 36007KT 10SM CLR 06/M05 A3039 RMK AO2 T00611055
KBKD 121035Z AUTO 36004KT 10SM CLR 07/M05 A3039 RMK AO2 T00701055
KBKD 121015Z AUTO 01005KT 10SM CLR 08/M06 A3039 RMK AO2 T00751057
KBKD 120955Z AUTO 01005KT 10SM CLR 08/M06 A3038 RMK AO2 T00801061
KBKD 120935Z AUTO 01006KT 10SM CLR 09/M06 A3038 RMK AO2 T00861065
KBKD 120915Z AUTO 02009KT 10SM CLR 09/M07 A3037 RMK AO2 T00911070
KBKD 120855Z AUTO 02008KT 10SM CLR 10/M07 A3037 RMK AO2 T00951072
KBKD 120835Z AUTO 02008KT 10SM CLR 10/M07 A3036 RMK AO2 T01001075
KBKD 120815Z AUTO 02008KT 10SM CLR 10/M08 A3035 RMK AO2 T01031078
KBKD 120755Z AUTO 02008KT 10SM CLR 11/M08 A3035 RMK AO2 T01071081
KBKD 120735Z AUTO 02010G15KT 10SM CLR 11/M08 A3034 RMK AO2 T01101083
KBKD 120715Z AUTO 02008KT 10SM CLR 10/M09 A3033 RMK AO2 T01021086
KBKD 120655Z AUTO 36008KT 10SM CLR 09/M09 A3032 RMK AO2 T00921089
KBKD 120635Z AUTO 35007KT 10SM CLR 09/M09 A3030 RMK AO2 T00861087
KBKD 120615Z AUTO 35004KT 10SM CLR 09/M09 A3030 RMK AO2 T00911086
KBKD 120555Z AUTO 00000KT 10SM CLR 09/M08 A3029 RMK AO2 T00871085 10191 20071 402560001
KBKD 120535Z AUTO 28004KT 10SM CLR 08/M08 A3028 RMK AO2 T00781080
KBKD 120515Z AUTO 31003KT 10SM CLR 08/M08 A3027 RMK AO2 T00811080
KBKD 120455Z AUTO 00000KT 10SM CLR 08/M08 A3026 RMK AO2 T00831079
KBKD 120435Z AUTO 00000KT 10SM CLR 09/M08 A3025 RMK AO2 T00911081
KBKD 120415Z AUTO 01004KT 10SM CLR 09/M08 A3025 RMK AO2 T00941085
KBKD 120355Z AUTO 36007KT 10SM CLR 09/M08 A3024 RMK AO2 T00931080
KBKD 120335Z AUTO 01005KT 10SM CLR 10/M08 A3023 RMK AO2 T01001084
KBKD 120315Z AUTO 02003KT 10SM CLR 11/M09 A3023 RMK AO2 T01121089
KBKD 120255Z AUTO 00000KT 10SM CLR 10/M09 A3022 RMK AO2 T00971092
KBKD 120235Z AUTO 34003KT 10SM CLR 11/M09 A3021 RMK AO2 T01121089
KBKD 120215Z AUTO 33003KT 10SM CLR 11/M09 A3021 RMK AO2 T01061091
KBKD 120155Z AUTO 00000KT 10SM CLR 14/M10 A3021 RMK AO2 T01431102
KBKD 120135Z AUTO 24003KT 10SM CLR 14/M10 A3019 RMK AO2 T01371100
KBKD 120115Z AUTO 00000KT 7SM CLR 14/M10 A3018 RMK AO2 T01351100
KBKD 120055Z AUTO 30004KT 7SM CLR 16/M10 A3018 RMK AO2 T01591105
KBKD 120035Z AUTO 32005KT 7SM CLR 18/M10 A3017 RMK AO2 T01761102
KBKD 120015Z AUTO 27004KT 10SM CLR 19/M10 A3016 RMK AO2 T01891101
KBKD 112355Z AUTO 28005KT 7SM CLR 19/M10 A3015 RMK AO2 T01911098 10256 20191
KBKD 112335Z AUTO 28006KT 5SM HZ CLR 20/M09 A3015 RMK AO2 T02021095
KBKD 112315Z AUTO 29005KT 5SM HZ CLR 22/M09 A3014 RMK AO2 T02161094